Time;durP1;ratioP1;P1;durP2;ratioP2;P2;SDS_P1;SDS_P2;PMS_P1;PMS_P2;Temp;Humidity;BMP_temperature;BMP_pressure;BME280_temperature;BME280_humidity;BME280_pressure;Samples;Min_cycle;Max_cycle;Signal;HPM_P1;HPM_P2
2022/03/15 00:00:34;;;;;;;0.83;0.83;;;4.30;1.00;;;;;;5032568;28;20338;-74
2022/03/15 00:03:00;;;;;;;0.90;0.90;;;4.20;1.00;;;;;;5032800;28;20180;-75
2022/03/15 00:05:26;;;;;;;0.80;0.80;;;4.30;1.00;;;;;;5032818;28;20647;-73
2022/03/15 00:07:52;;;;;;;0.90;0.90;;;4.10;1.00;;;;;;5032820;28;20182;-74
2022/03/15 00:10:18;;;;;;;0.80;0.80;;;3.90;1.00;;;;;;5032217;28;20556;-74
2022/03/15 00:12:44;;;;;;;0.83;0.83;;;3.90;1.00;;;;;;5032925;28;20523;-74
2022/03/15 00:15:11;;;;;;;0.90;0.90;;;4.00;1.00;;;;;;5032498;28;20222;-73
2022/03/15 00:17:44;;;;;;;0.77;0.77;;;4.20;1.00;;;;;;5032476;28;20603;-73
2022/03/15 00:20:14;;;;;;;0.80;0.80;;;4.20;1.00;;;;;;5032093;28;20701;-75
2022/03/15 00:22:41;;;;;;;0.80;0.80;;;4.10;1.00;;;;;;5032668;28;20180;-76
2022/03/15 00:25:09;;;;;;;0.80;0.80;;;4.20;1.00;;;;;;5032647;28;20192;-73
2022/03/15 00:27:35;;;;;;;0.80;0.80;;;4.20;1.00;;;;;;5032634;28;20180;-74
2022/03/15 00:30:03;;;;;;;0.77;0.77;;;4.20;1.00;;;;;;5032167;28;20606;-74
2022/03/15 00:32:28;;;;;;;0.83;0.83;;;4.30;1.00;;;;;;5032311;28;20576;-74
2022/03/15 00:34:54;;;;;;;0.80;0.80;;;4.30;1.00;;;;;;5032613;28;20627;-75
2022/03/15 00:37:20;;;;;;;0.80;0.80;;;4.20;1.00;;;;;;5032432;28;20176;-73
2022/03/15 00:39:45;;;;;;;0.80;0.80;;;4.20;1.00;;;;;;5031608;28;20250;-74
2022/03/15 00:42:11;;;;;;;0.80;0.80;;;4.20;1.00;;;;;;5032178;28;20176;-74
2022/03/15 00:44:38;;;;;;;0.73;0.73;;;4.10;1.00;;;;;;5032331;28;20180;-75
2022/03/15 00:47:04;;;;;;;0.80;0.80;;;4.00;1.00;;;;;;5032048;28;20512;-73
2022/03/15 00:49:29;;;;;;;0.90;0.90;;;4.10;1.00;;;;;;5031748;28;20231;-74
2022/03/15 00:51:55;;;;;;;0.70;0.70;;;4.10;1.00;;;;;;5032305;28;20202;-74
2022/03/15 00:54:23;;;;;;;0.73;0.73;;;3.90;1.00;;;;;;5032086;28;20590;-74
2022/03/15 00:56:52;;;;;;;0.70;0.70;;;4.00;1.00;;;;;;5031993;28;20175;-73
2022/03/15 00:59:19;;;;;;;0.80;0.80;;;4.00;1.00;;;;;;5031222;28;20203;-74
2022/03/15 01:01:48;;;;;;;0.93;0.93;;;4.00;1.00;;;;;;5031692;28;20172;-74
2022/03/15 01:04:14;;;;;;;0.83;0.83;;;4.10;1.00;;;;;;5032004;28;20180;-74
2022/03/15 01:06:42;;;;;;;0.73;0.73;;;4.10;1.00;;;;;;5032029;28;20207;-74
2022/03/15 01:09:09;;;;;;;0.90;0.90;;;4.10;1.00;;;;;;5031241;28;20180;-75
2022/03/15 01:11:35;;;;;;;0.70;0.70;;;4.20;1.00;;;;;;5031873;28;20187;-75
2022/03/15 01:14:01;;;;;;;0.70;0.70;;;3.90;1.00;;;;;;5031718;28;20673;-73
2022/03/15 01:16:26;;;;;;;0.83;0.83;;;3.80;1.00;;;;;;5031660;28;20175;-73
2022/03/15 01:18:52;;;;;;;0.90;0.90;;;3.90;1.00;;;;;;5031242;28;20215;-74
2022/03/15 01:21:19;;;;;;;0.80;0.80;;;4.00;1.00;;;;;;5031729;28;20321;-73
2022/03/15 01:23:45;;;;;;;0.80;0.80;;;3.90;1.00;;;;;;5031702;28;20184;-75
2022/03/15 01:26:10;;;;;;;0.80;0.80;;;3.90;1.00;;;;;;5031427;28;20172;-75
2022/03/15 01:28:36;;;;;;;0.80;0.80;;;4.10;1.00;;;;;;5031324;28;20187;-75
2022/03/15 01:31:02;;;;;;;0.80;0.80;;;4.10;1.00;;;;;;5030955;28;20204;-75
2022/03/15 01:33:27;;;;;;;0.80;0.80;;;4.20;1.00;;;;;;5031545;28;20225;-74
2022/03/15 01:35:54;;;;;;;0.80;0.80;;;3.90;1.00;;;;;;5031581;28;20271;-75
2022/03/15 01:38:19;;;;;;;0.70;0.70;;;4.10;1.00;;;;;;5031075;28;20604;-74
2022/03/15 01:40:45;;;;;;;0.80;0.80;;;4.10;1.00;;;;;;5030847;28;20249;-75
2022/03/15 01:43:11;;;;;;;0.80;0.80;;;4.20;1.00;;;;;;5031266;28;20187;-74
2022/03/15 01:45:38;;;;;;;0.80;0.80;;;4.10;1.00;;;;;;5031401;28;20658;-75
2022/03/15 01:48:05;;;;;;;0.80;0.80;;;4.20;1.00;;;;;;5031135;28;20200;-74
2022/03/15 01:50:31;;;;;;;0.80;0.80;;;4.20;1.00;;;;;;5030124;28;20206;-75
2022/03/15 01:52:57;;;;;;;0.70;0.70;;;4.10;1.00;;;;;;5030843;28;20180;-76
2022/03/15 01:55:23;;;;;;;0.70;0.70;;;4.00;1.00;;;;;;5031110;28;20646;-74
2022/03/15 01:57:49;;;;;;;0.80;0.80;;;4.20;1.00;;;;;;5030940;28;20194;-74
2022/03/15 02:00:17;;;;;;;0.80;0.80;;;4.10;1.00;;;;;;5030818;28;20227;-75
2022/03/15 02:02:43;;;;;;;0.80;0.80;;;4.10;1.00;;;;;;5031231;28;20191;-75
2022/03/15 02:05:09;;;;;;;0.80;0.80;;;3.90;1.00;;;;;;5031416;28;20213;-76
2022/03/15 02:07:35;;;;;;;0.70;0.70;;;4.00;1.00;;;;;;5031121;28;20258;-74
2022/03/15 02:10:00;;;;;;;0.73;0.73;;;4.00;1.00;;;;;;5030553;28;20632;-72
2022/03/15 02:12:28;;;;;;;0.80;0.80;;;4.00;1.00;;;;;;5030844;28;20720;-74
2022/03/15 02:14:53;;;;;;;0.70;0.70;;;3.80;1.00;;;;;;5031191;28;20182;-74
2022/03/15 02:17:19;;;;;;;0.80;0.80;;;3.90;1.00;;;;;;5030762;28;20191;-73
2022/03/15 02:19:45;;;;;;;0.70;0.70;;;3.90;1.00;;;;;;5030465;28;20256;-73
2022/03/15 02:22:11;;;;;;;0.80;0.80;;;3.90;1.00;;;;;;5030983;28;20199;-75
2022/03/15 02:24:38;;;;;;;0.80;0.80;;;3.90;1.00;;;;;;5030831;28;20642;-74
2022/03/15 02:27:04;;;;;;;0.80;0.80;;;3.80;1.00;;;;;;5030758;28;20176;-74
2022/03/15 02:29:29;;;;;;;0.80;0.80;;;3.80;1.00;;;;;;5030323;28;20471;-74
2022/03/15 02:31:55;;;;;;;0.80;0.80;;;3.80;1.00;;;;;;5030992;28;20176;-74
2022/03/15 02:34:22;;;;;;;0.80;0.80;;;3.90;1.90;;;;;;5030954;28;20269;-74
2022/03/15 02:36:47;;;;;;;0.70;0.70;;;3.70;1.00;;;;;;5030916;28;20194;-73
2022/03/15 02:39:13;;;;;;;0.80;0.80;;;3.80;1.00;;;;;;5030086;28;20761;-75
2022/03/15 02:41:39;;;;;;;0.90;0.90;;;3.90;1.00;;;;;;5030664;28;20230;-74
2022/03/15 02:44:06;;;;;;;0.80;0.80;;;3.90;1.00;;;;;;5030867;28;20175;-75
2022/03/15 02:46:33;;;;;;;0.87;0.87;;;3.90;1.00;;;;;;5030639;28;20651;-73
2022/03/15 02:48:58;;;;;;;0.80;0.80;;;3.80;1.00;;;;;;5030339;28;20387;-74
2022/03/15 02:51:25;;;;;;;0.80;0.80;;;3.90;1.00;;;;;;5030615;28;20608;-73
2022/03/15 02:53:52;;;;;;;0.60;0.60;;;4.00;2.10;;;;;;5030659;28;20195;-75
2022/03/15 02:56:17;;;;;;;0.80;0.80;;;4.00;3.60;;;;;;5030562;28;20551;-74
2022/03/15 02:58:43;;;;;;;0.80;0.80;;;3.80;21.70;;;;;;5030575;28;20212;-74
2022/03/15 03:01:09;;;;;;;0.70;0.70;;;3.80;23.40;;;;;;5030639;28;20254;-74
2022/03/15 03:03:35;;;;;;;0.80;0.80;;;3.80;20.10;;;;;;5034206;28;20180;-74
2022/03/15 03:06:01;;;;;;;0.90;0.90;;;3.70;37.20;;;;;;5034185;28;20183;-74
2022/03/15 03:08:27;;;;;;;0.80;0.80;;;3.70;39.20;;;;;;5034033;28;20195;-73
2022/03/15 03:10:54;;;;;;;0.77;0.77;;;3.80;10.90;;;;;;5033207;28;20196;-75
2022/03/15 03:13:25;;;;;;;0.80;0.80;;;3.80;12.70;;;;;;5034134;28;20191;-75
2022/03/15 03:15:52;;;;;;;0.77;0.77;;;3.80;1.00;;;;;;5033832;28;20673;-73
2022/03/15 03:18:18;;;;;;;0.80;0.80;;;3.90;1.00;;;;;;5033620;28;20219;-75
2022/03/15 03:20:44;;;;;;;0.80;0.80;;;3.90;1.00;;;;;;5032972;28;20200;-75
2022/03/15 03:23:09;;;;;;;0.80;0.80;;;3.90;1.00;;;;;;5033743;28;20183;-75
2022/03/15 03:25:36;;;;;;;0.70;0.70;;;3.90;1.00;;;;;;5033876;28;20302;-74
2022/03/15 03:28:03;;;;;;;0.80;0.80;;;3.90;10.10;;;;;;5033765;28;20180;-74
2022/03/15 03:30:29;;;;;;;0.70;0.70;;;3.90;15.50;;;;;;5033368;28;20195;-75
2022/03/15 03:32:54;;;;;;;0.80;0.80;;;3.80;23.50;;;;;;5033694;28;20559;-74
2022/03/15 03:35:21;;;;;;;0.80;0.80;;;3.80;2.20;;;;;;5033730;28;20606;-74
2022/03/15 03:37:46;;;;;;;0.80;0.80;;;4.10;1.00;;;;;;5033291;28;20211;-74
2022/03/15 03:40:12;;;;;;;0.80;0.80;;;4.10;1.00;;;;;;5033009;28;20232;-75
2022/03/15 03:42:37;;;;;;;0.70;0.70;;;4.00;1.00;;;;;;5033501;28;20262;-74
2022/03/15 03:45:05;;;;;;;0.70;0.70;;;4.10;1.00;;;;;;5033584;28;20180;-75
2022/03/15 03:47:30;;;;;;;0.80;0.80;;;4.10;1.00;;;;;;5033339;28;20182;-75
2022/03/15 03:49:56;;;;;;;0.80;0.80;;;4.20;1.00;;;;;;5032666;28;20200;-75
2022/03/15 03:52:22;;;;;;;0.70;0.70;;;4.10;1.00;;;;;;5033252;28;20176;-74
2022/03/15 03:54:47;;;;;;;0.70;0.70;;;4.10;1.00;;;;;;5033006;28;20180;-74
2022/03/15 03:57:13;;;;;;;0.80;0.80;;;4.10;1.00;;;;;;5033271;28;20175;-73
2022/03/15 03:59:38;;;;;;;0.80;0.80;;;4.20;1.00;;;;;;5032478;28;20251;-74
2022/03/15 04:02:04;;;;;;;0.80;0.80;;;4.30;1.00;;;;;;5032926;28;20180;-75
2022/03/15 04:04:30;;;;;;;0.87;0.87;;;4.10;1.00;;;;;;5032737;28;20188;-74
2022/03/15 04:06:56;;;;;;;0.80;0.80;;;3.90;1.00;;;;;;5032696;28;20266;-75
2022/03/15 04:09:23;;;;;;;0.80;0.80;;;3.90;24.60;;;;;;5032527;28;20199;-74
2022/03/15 04:11:49;;;;;;;0.90;0.90;;;3.90;14.20;;;;;;5032825;28;20176;-74
2022/03/15 04:14:15;;;;;;;0.80;0.80;;;4.00;8.70;;;;;;5032308;28;20267;-75
2022/03/15 04:19:16;;;;;;;0.70;0.70;;;3.90;19.90;;;;;;5071213;28;20597;-73
2022/03/15 04:21:42;;;;;;;0.70;0.70;;;4.00;1.00;;;;;;5073164;28;20221;-74
2022/03/15 04:24:07;;;;;;;0.80;0.80;;;4.00;1.00;;;;;;5073073;28;20196;-74
2022/03/15 04:26:33;;;;;;;0.70;0.70;;;4.00;1.00;;;;;;5073151;28;20173;-74
2022/03/15 04:28:58;;;;;;;0.60;0.60;;;4.00;1.00;;;;;;5072589;28;20193;-74
2022/03/15 04:31:24;;;;;;;0.80;0.80;;;4.10;1.00;;;;;;5073252;28;20656;-74
2022/03/15 04:33:50;;;;;;;0.80;0.80;;;4.00;1.00;;;;;;5072772;28;20202;-73
2022/03/15 04:36:15;;;;;;;0.80;0.80;;;3.90;1.00;;;;;;5072859;28;20171;-70
2022/03/15 04:38:42;;;;;;;0.80;0.80;;;3.90;1.00;;;;;;5072925;28;20233;-73
2022/03/15 04:41:07;;;;;;;0.70;0.70;;;3.90;1.00;;;;;;5072095;28;20545;-71
2022/03/15 04:43:34;;;;;;;0.70;0.70;;;4.00;1.00;;;;;;5073095;28;20174;-73
2022/03/15 04:45:59;;;;;;;0.80;0.80;;;4.00;1.00;;;;;;5072639;28;20644;-71
2022/03/15 04:48:26;;;;;;;0.70;0.70;;;3.90;1.00;;;;;;5072628;28;20170;-73
2022/03/15 04:50:51;;;;;;;0.80;0.80;;;3.90;1.00;;;;;;5071902;28;20199;-73
2022/03/15 04:53:18;;;;;;;0.70;0.70;;;4.00;1.00;;;;;;5072774;28;20169;-73
2022/03/15 04:55:44;;;;;;;0.80;0.80;;;4.00;1.00;;;;;;5072477;28;20182;-72
2022/03/15 04:58:10;;;;;;;0.70;0.70;;;4.00;1.00;;;;;;5072541;28;20293;-73
2022/03/15 05:00:35;;;;;;;0.80;0.80;;;4.20;1.00;;;;;;5071753;28;20626;-73
2022/03/15 05:03:01;;;;;;;0.70;0.70;;;4.20;1.00;;;;;;5072366;28;20175;-72
2022/03/15 05:05:26;;;;;;;0.70;0.70;;;4.30;1.00;;;;;;5072133;28;20185;-70
2022/03/15 05:07:52;;;;;;;0.80;0.80;;;4.30;1.00;;;;;;5072382;28;20200;-71
2022/03/15 05:13:02;;;;;;;0.80;0.80;;;4.20;1.00;;;;;;5072188;28;20182;-72
2022/03/15 05:15:28;;;;;;;0.70;0.70;;;4.10;1.00;;;;;;5072160;28;20182;-73
2022/03/15 05:17:54;;;;;;;0.70;0.70;;;4.10;1.00;;;;;;5071713;28;20543;-74
2022/03/15 05:20:20;;;;;;;0.70;0.70;;;4.10;1.00;;;;;;5071597;28;20543;-74
2022/03/15 05:22:46;;;;;;;0.77;0.77;;;4.10;1.00;;;;;;5072065;28;20179;-74
2022/03/15 05:25:13;;;;;;;0.70;0.70;;;4.10;1.00;;;;;;5070919;28;20182;-74
2022/03/15 05:27:40;;;;;;;0.80;0.80;;;4.10;1.00;;;;;;5071986;28;20179;-73
2022/03/15 05:30:06;;;;;;;0.70;0.70;;;4.20;1.00;;;;;;5071012;28;20190;-72
2022/03/15 05:32:32;;;;;;;0.77;0.77;;;4.30;1.00;;;;;;5071726;28;20182;-72
2022/03/15 05:34:58;;;;;;;0.70;0.70;;;4.30;1.00;;;;;;5071965;28;20261;-73
2022/03/15 05:37:23;;;;;;;0.70;0.70;;;4.40;1.00;;;;;;5071890;28;20633;-73
2022/03/15 05:39:49;;;;;;;0.70;0.70;;;4.40;1.00;;;;;;5071151;28;20615;-73
2022/03/15 05:42:15;;;;;;;0.70;0.70;;;4.40;1.00;;;;;;5071804;28;20181;-73
2022/03/15 05:44:41;;;;;;;0.70;0.70;;;4.40;1.00;;;;;;5071733;28;20707;-71
2022/03/15 05:47:07;;;;;;;0.80;0.80;;;4.40;1.00;;;;;;5071544;28;20202;-71
2022/03/15 05:49:32;;;;;;;0.80;0.80;;;4.30;1.00;;;;;;5071261;28;20190;-72
2022/03/15 05:51:58;;;;;;;0.70;0.70;;;4.40;1.00;;;;;;5071493;28;20186;-74
2022/03/15 05:54:23;;;;;;;0.70;0.70;;;4.30;1.00;;;;;;5071699;28;20174;-73
2022/03/15 05:56:49;;;;;;;0.70;0.70;;;4.30;1.00;;;;;;5071570;28;20170;-73
2022/03/15 05:59:15;;;;;;;0.70;0.70;;;4.30;1.00;;;;;;5070874;28;20222;-75
2022/03/15 06:01:40;;;;;;;0.70;0.70;;;4.30;1.00;;;;;;5071417;28;20754;-73
2022/03/15 06:04:07;;;;;;;0.70;0.70;;;4.20;1.00;;;;;;5071795;28;20668;-72
2022/03/15 06:06:33;;;;;;;0.70;0.70;;;4.10;1.00;;;;;;5071706;28;20174;-72
2022/03/15 06:08:59;;;;;;;0.80;0.80;;;3.90;1.00;;;;;;5071275;28;20205;-71
2022/03/15 06:11:25;;;;;;;0.80;0.80;;;3.80;20.90;;;;;;5071308;28;20664;-72
2022/03/15 06:13:51;;;;;;;0.70;0.70;;;3.90;13.60;;;;;;5071387;28;20182;-74
2022/03/15 06:16:16;;;;;;;0.70;0.70;;;3.90;21.20;;;;;;5073935;28;20162;-75
2022/03/15 06:18:42;;;;;;;0.70;0.70;;;4.00;55.80;;;;;;5076369;28;20323;-73
2022/03/15 06:21:07;;;;;;;0.70;0.70;;;4.00;30.00;;;;;;5076378;28;20194;-74
2022/03/15 06:23:33;;;;;;;0.80;0.80;;;4.20;1.00;;;;;;5078033;28;20182;-73
2022/03/15 06:25:58;;;;;;;0.70;0.70;;;4.40;1.00;;;;;;5071483;28;20553;-73
2022/03/15 06:28:24;;;;;;;0.70;0.70;;;4.50;1.00;;;;;;5071139;28;20600;-73
2022/03/15 06:30:49;;;;;;;0.70;0.70;;;4.50;1.00;;;;;;5071711;28;20226;-73
2022/03/15 06:33:15;;;;;;;0.70;0.70;;;4.60;1.00;;;;;;5071424;28;20713;-71
2022/03/15 06:35:46;;;;;;;0.70;0.70;;;4.60;1.00;;;;;;5071305;28;20220;-73
2022/03/15 06:38:11;;;;;;;0.70;0.70;;;4.60;1.00;;;;;;5075205;28;20186;-72
2022/03/15 06:40:41;;;;;;;0.70;0.70;;;4.60;1.00;;;;;;5074418;28;20684;-72
2022/03/15 06:43:09;;;;;;;0.70;0.70;;;4.60;1.00;;;;;;5074555;28;20645;-73
2022/03/15 06:45:34;;;;;;;0.70;0.70;;;4.70;1.00;;;;;;5074233;28;20205;-75
2022/03/15 06:48:00;;;;;;;0.70;0.70;;;4.70;1.00;;;;;;5074614;28;20661;-74
2022/03/15 06:50:26;;;;;;;0.70;0.70;;;4.90;1.00;;;;;;5073872;28;20224;-73
2022/03/15 06:52:51;;;;;;;0.80;0.80;;;5.10;1.00;;;;;;5074033;28;20224;-74
2022/03/15 06:55:17;;;;;;;0.70;0.70;;;5.00;1.00;;;;;;5074134;28;20186;-72
2022/03/15 06:57:43;;;;;;;0.63;0.63;;;5.20;1.00;;;;;;5075299;28;20171;-70
2022/03/15 07:00:11;;;;;;;0.70;0.70;;;5.40;1.00;;;;;;5074201;28;20218;-72
2022/03/15 07:02:37;;;;;;;0.60;0.60;;;5.50;1.00;;;;;;5074782;28;20185;-72
2022/03/15 07:05:03;;;;;;;0.70;0.70;;;5.50;1.00;;;;;;5074456;28;20179;-70
2022/03/15 07:07:29;;;;;;;0.60;0.60;;;5.50;1.00;;;;;;5074596;28;20174;-72
2022/03/15 07:09:54;;;;;;;0.70;0.70;;;5.50;1.00;;;;;;5073631;28;20556;-72
2022/03/15 07:12:21;;;;;;;0.70;0.70;;;5.60;1.00;;;;;;5074355;28;20174;-71
2022/03/15 07:14:47;;;;;;;0.70;0.70;;;5.70;1.00;;;;;;5074668;28;20249;-71
2022/03/15 07:17:13;;;;;;;0.60;0.60;;;5.70;1.00;;;;;;5074174;28;20210;-72
2022/03/15 07:19:38;;;;;;;0.70;0.70;;;5.80;1.00;;;;;;5073724;28;20236;-72
2022/03/15 07:22:06;;;;;;;0.60;0.60;;;6.00;1.00;;;;;;5074000;28;20185;-71
2022/03/15 07:24:32;;;;;;;0.60;0.60;;;6.40;1.00;;;;;;5073982;28;20212;-72
2022/03/15 07:26:58;;;;;;;0.60;0.60;;;6.50;1.00;;;;;;5074064;28;20191;-71
2022/03/15 07:29:24;;;;;;;0.60;0.60;;;6.50;1.00;;;;;;5073886;28;20618;-73
2022/03/15 07:31:49;;;;;;;0.60;0.60;;;6.60;1.00;;;;;;5074083;28;20181;-72
2022/03/15 07:34:15;;;;;;;0.60;0.60;;;6.60;1.00;;;;;;5074011;28;20182;-72
2022/03/15 07:36:40;;;;;;;0.50;0.50;;;6.70;1.00;;;;;;5073905;28;20672;-73
2022/03/15 07:39:06;;;;;;;0.60;0.60;;;6.20;1.00;;;;;;5073172;28;20214;-72
2022/03/15 07:41:34;;;;;;;0.60;0.60;;;6.50;1.00;;;;;;5074919;28;20174;-71
2022/03/15 07:44:00;;;;;;;0.50;0.50;;;6.70;99.90;;;;;;5073957;28;20178;-72
2022/03/15 07:46:25;;;;;;;0.60;0.60;;;6.70;99.90;;;;;;5073837;28;20231;-72
2022/03/15 07:48:51;;;;;;;0.60;0.60;;;6.60;99.90;;;;;;5072508;28;20194;-75
2022/03/15 07:51:16;;;;;;;0.60;0.60;;;6.70;99.90;;;;;;5073523;28;20198;-72
2022/03/15 07:53:42;;;;;;;0.50;0.50;;;6.80;99.90;;;;;;5073605;28;20543;-72
2022/03/15 07:56:08;;;;;;;0.70;0.70;;;7.00;9.80;;;;;;5073863;28;20629;-71
2022/03/15 07:58:33;;;;;;;0.60;0.60;;;7.10;1.00;;;;;;5075328;28;20280;-71
2022/03/15 08:00:59;;;;;;;0.50;0.50;;;7.30;1.00;;;;;;5073795;28;20224;-72
2022/03/15 08:03:24;;;;;;;0.60;0.60;;;7.20;1.00;;;;;;5073551;28;20253;-71
2022/03/15 08:05:51;;;;;;;0.60;0.60;;;7.10;99.90;;;;;;5073527;28;20954;-72
2022/03/15 08:08:16;;;;;;;0.60;0.60;;;6.80;1.00;;;;;;5072968;28;20176;-71
2022/03/15 08:10:43;;;;;;;0.60;0.60;;;6.70;1.00;;;;;;5072314;28;20530;-72
2022/03/15 08:13:10;;;;;;;0.60;0.60;;;6.70;1.00;;;;;;5073294;28;20183;-70
2022/03/15 08:15:36;;;;;;;0.50;0.50;;;6.70;1.00;;;;;;5073241;28;20178;-72
2022/03/15 08:18:03;;;;;;;0.60;0.60;;;6.80;1.00;;;;;;5073056;28;20201;-72
2022/03/15 08:20:39;;;;;;;0.63;0.63;;;6.80;1.00;;;;;;5072658;28;20206;-70
2022/03/15 08:23:05;;;;;;;0.50;0.50;;;6.90;99.90;;;;;;5073016;28;20224;-73
2022/03/15 08:25:30;;;;;;;0.57;0.57;;;7.20;99.90;;;;;;5073361;28;20190;-72
2022/03/15 08:27:57;;;;;;;0.60;0.60;;;7.40;42.00;;;;;;5074975;28;20213;-70
2022/03/15 08:30:23;;;;;;;0.50;0.50;;;7.60;1.00;;;;;;5072740;28;20203;-74
2022/03/15 08:32:49;;;;;;;0.60;0.60;;;7.80;99.90;;;;;;5072897;28;20167;-72
2022/03/15 08:35:14;;;;;;;0.53;0.53;;;7.80;1.00;;;;;;5072807;28;20240;-71
2022/03/15 08:37:42;;;;;;;0.60;0.60;;;8.00;99.90;;;;;;5072635;28;20167;-70
2022/03/15 08:40:09;;;;;;;0.50;0.50;;;8.20;1.00;;;;;;5072253;28;20347;-69
2022/03/15 08:42:34;;;;;;;0.60;0.60;;;8.20;1.00;;;;;;5072583;28;20171;-71
2022/03/15 08:45:00;;;;;;;0.60;0.60;;;8.30;1.00;;;;;;5072583;28;20174;-73
2022/03/15 08:47:26;;;;;;;0.60;0.60;;;8.30;1.00;;;;;;5072758;28;20602;-73
2022/03/15 08:49:52;;;;;;;0.50;0.50;;;8.20;1.00;;;;;;5070809;28;20202;-74
2022/03/15 08:52:17;;;;;;;0.60;0.60;;;8.20;1.00;;;;;;5072171;28;20209;-73
2022/03/15 08:54:43;;;;;;;0.50;0.50;;;8.40;1.00;;;;;;5072122;28;20189;-74
2022/03/15 08:57:09;;;;;;;0.60;0.60;;;8.40;1.00;;;;;;5072554;28;20184;-75
2022/03/15 08:59:34;;;;;;;0.50;0.50;;;8.40;1.00;;;;;;5073492;28;20634;-75
2022/03/15 09:02:01;;;;;;;0.50;0.50;;;8.20;1.00;;;;;;5075552;28;20197;-74
2022/03/15 09:04:27;;;;;;;0.60;0.60;;;8.20;1.00;;;;;;5073142;28;20181;-74
2022/03/15 09:06:53;;;;;;;0.50;0.50;;;8.10;99.90;;;;;;5071006;28;20262;-76
2022/03/15 09:09:21;;;;;;;0.60;0.60;;;8.30;57.70;;;;;;5070686;28;20261;-71
2022/03/15 09:11:47;;;;;;;0.60;0.60;;;8.20;1.00;;;;;;5071764;28;20182;-73
2022/03/15 09:14:14;;;;;;;0.60;0.60;;;8.40;1.00;;;;;;5068815;28;20702;-75
2022/03/15 09:16:40;;;;;;;0.60;0.60;;;8.20;1.00;;;;;;5072155;28;20178;-73
2022/03/15 09:19:06;;;;;;;0.63;0.63;;;8.30;1.00;;;;;;5071216;28;20229;-75
2022/03/15 09:21:32;;;;;;;0.60;0.60;;;8.30;99.90;;;;;;5071812;28;20210;-74
2022/03/15 09:23:57;;;;;;;0.50;0.50;;;8.20;99.90;;;;;;5071436;28;20213;-74
2022/03/15 09:26:24;;;;;;;0.60;0.60;;;8.20;99.90;;;;;;5071938;28;20228;-75
2022/03/15 09:28:51;;;;;;;0.43;0.43;;;8.40;99.90;;;;;;5071814;28;20171;-74
2022/03/15 09:31:17;;;;;;;0.60;0.60;;;8.30;52.80;;;;;;5071477;28;20668;-75
2022/03/15 09:33:43;;;;;;;0.60;0.60;;;8.50;99.90;;;;;;5071773;28;20185;-73
2022/03/15 09:36:09;;;;;;;0.60;0.60;;;8.40;99.90;;;;;;5071720;28;20182;-73
2022/03/15 09:38:34;;;;;;;0.60;0.60;;;8.40;1.00;;;;;;5072353;28;20221;-72
2022/03/15 09:41:03;;;;;;;0.57;0.57;;;8.80;99.90;;;;;;5072684;28;20240;-74
2022/03/15 09:43:35;;;;;;;0.60;0.60;;;9.00;1.00;;;;;;5071985;28;20179;-74
2022/03/15 09:46:02;;;;;;;0.60;0.60;;;9.10;99.90;;;;;;5071633;28;20185;-73
2022/03/15 09:48:28;;;;;;;0.60;0.60;;;9.10;99.90;;;;;;5071534;28;20219;-72
2022/03/15 09:50:54;;;;;;;0.50;0.50;;;8.90;1.00;;;;;;5070981;28;20206;-73
2022/03/15 09:53:20;;;;;;;0.60;0.60;;;8.60;1.00;;;;;;5071669;28;20174;-73
2022/03/15 09:55:46;;;;;;;0.50;0.50;;;8.70;99.90;;;;;;5071623;28;20186;-73
2022/03/15 09:58:14;;;;;;;0.50;0.50;;;8.90;99.90;;;;;;5071319;28;20653;-74
2022/03/15 10:00:41;;;;;;;0.50;0.50;;;8.80;1.00;;;;;;5070875;28;20687;-73
2022/03/15 10:03:08;;;;;;;0.70;0.70;;;8.80;1.00;;;;;;5071520;28;20178;-73
2022/03/15 10:05:34;;;;;;;0.60;0.60;;;8.80;1.00;;;;;;5071609;28;20254;-72
2022/03/15 10:08:00;;;;;;;0.60;0.60;;;8.80;1.00;;;;;;5071257;28;20166;-73
2022/03/15 10:10:27;;;;;;;0.60;0.60;;;8.90;1.00;;;;;;5070562;28;20191;-72
2022/03/15 10:12:53;;;;;;;0.60;0.60;;;8.90;99.90;;;;;;5074902;28;20182;-72
2022/03/15 10:15:21;;;;;;;0.60;0.60;;;8.80;1.00;;;;;;5075228;28;20258;-74
2022/03/15 10:17:55;;;;;;;0.60;0.60;;;8.80;1.00;;;;;;5075605;28;20190;-71
2022/03/15 10:20:28;;;;;;;0.60;0.60;;;8.80;1.00;;;;;;5074778;28;20241;-72
2022/03/15 10:22:59;;;;;;;0.60;0.60;;;8.80;1.00;;;;;;5076007;28;20178;-73
2022/03/15 10:25:27;;;;;;;0.60;0.60;;;9.00;1.00;;;;;;5074896;28;20182;-72
2022/03/15 10:27:58;;;;;;;0.60;0.60;;;8.80;99.90;;;;;;5074893;28;20175;-72
2022/03/15 10:30:26;;;;;;;0.70;0.70;;;8.90;1.00;;;;;;5074726;28;20194;-72
2022/03/15 10:32:52;;;;;;;0.53;0.53;;;9.00;1.00;;;;;;5074887;28;20776;-72
2022/03/15 10:35:20;;;;;;;0.60;0.60;;;9.00;1.00;;;;;;5075110;28;20261;-72
2022/03/15 10:37:45;;;;;;;0.60;0.60;;;9.10;1.00;;;;;;5074720;28;20178;-74
2022/03/15 10:40:11;;;;;;;0.70;0.70;;;8.90;99.90;;;;;;5073903;28;20215;-72
2022/03/15 10:42:40;;;;;;;0.70;0.70;;;8.70;1.00;;;;;;5074608;28;20199;-72
2022/03/15 10:45:26;;;;;;;0.60;0.60;;;8.70;1.00;;;;;;5074746;28;20185;-74
2022/03/15 10:47:54;;;;;;;0.70;0.70;;;8.90;1.00;;;;;;5073869;28;20221;-72
2022/03/15 10:50:22;;;;;;;0.70;0.70;;;9.00;1.00;;;;;;5073963;28;20207;-74
2022/03/15 10:52:48;;;;;;;0.60;0.60;;;8.90;1.00;;;;;;5074232;28;20171;-73
2022/03/15 10:55:14;;;;;;;0.60;0.60;;;8.90;1.00;;;;;;5074169;28;20178;-73
2022/03/15 10:58:20;;;;;;;0.60;0.60;;;8.90;1.00;;;;;;5074649;28;20185;-74
2022/03/15 11:00:50;;;;;;;0.60;0.60;;;9.00;99.90;;;;;;4972632;28;20285;-72
2022/03/15 11:03:20;;;;;;;0.60;0.60;;;8.90;1.00;;;;;;5059800;28;20657;-73
2022/03/15 11:05:49;;;;;;;0.60;0.60;;;8.90;99.90;;;;;;5074105;28;20517;-72
2022/03/15 11:08:15;;;;;;;0.60;0.60;;;8.80;99.90;;;;;;5074365;28;20564;-73
2022/03/15 11:10:45;;;;;;;0.50;0.50;;;8.90;99.90;;;;;;5073898;28;20218;-73
2022/03/15 11:13:11;;;;;;;0.60;0.60;;;8.90;1.00;;;;;;5074010;28;20175;-73
2022/03/15 11:15:55;;;;;;;0.60;0.60;;;9.10;1.00;;;;;;5073930;28;20174;-74
2022/03/15 11:18:21;;;;;;;0.60;0.60;;;9.00;99.90;;;;;;5073586;28;20248;-74
2022/03/15 11:20:49;;;;;;;0.60;0.60;;;8.80;1.00;;;;;;5073580;28;20194;-73
2022/03/15 11:23:16;;;;;;;0.63;0.63;;;8.70;1.00;;;;;;5072499;28;20186;-74
2022/03/15 11:25:48;;;;;;;0.60;0.60;;;8.60;1.00;;;;;;5073912;28;20185;-73
2022/03/15 11:28:20;;;;;;;0.60;0.60;;;8.40;1.00;;;;;;5073793;28;20179;-74
2022/03/15 11:30:49;;;;;;;0.60;0.60;;;8.20;1.00;;;;;;5072851;28;20704;-73
2022/03/15 11:33:16;;;;;;;0.60;0.60;;;8.10;1.00;;;;;;5062877;28;20171;-72
2022/03/15 11:35:41;;;;;;;0.63;0.63;;;8.10;1.00;;;;;;5053691;28;20182;-73
2022/03/15 11:38:09;;;;;;;0.60;0.60;;;7.90;1.00;;;;;;5058827;28;20171;-73
2022/03/15 11:40:36;;;;;;;0.60;0.60;;;7.90;13.90;;;;;;5053032;28;20268;-73
2022/03/15 11:43:21;;;;;;;0.60;0.60;;;8.00;1.00;;;;;;5053540;28;20713;-74
2022/03/15 11:46:01;;;;;;;0.60;0.60;;;8.00;91.80;;;;;;5061236;28;20265;-75
2022/03/15 11:48:55;;;;;;;0.50;0.50;;;8.10;94.00;;;;;;5055916;28;20179;-76
2022/03/15 11:51:20;;;;;;;0.60;0.60;;;8.10;98.80;;;;;;5070705;28;20202;-73
2022/03/15 11:54:08;;;;;;;0.57;0.57;;;8.10;99.90;;;;;;5074634;28;20641;-73
2022/03/15 11:56:58;;;;;;;0.57;0.57;;;7.90;99.90;;;;;;5072486;28;20179;-71
2022/03/15 11:59:23;;;;;;;0.53;0.53;;;7.90;99.90;;;;;;5073541;28;20305;-73
2022/03/15 12:01:51;;;;;;;0.60;0.60;;;7.90;99.90;;;;;;5073344;28;20257;-73
2022/03/15 12:04:23;;;;;;;0.50;0.50;;;7.90;99.90;;;;;;5073224;28;20585;-74
2022/03/15 12:06:54;;;;;;;0.60;0.60;;;7.90;99.90;;;;;;5073368;28;20182;-74
2022/03/15 12:09:25;;;;;;;0.60;0.60;;;7.80;92.70;;;;;;5072658;28;20177;-74
2022/03/15 12:12:07;;;;;;;0.60;0.60;;;7.80;74.80;;;;;;5073036;28;20598;-71
2022/03/15 12:14:39;;;;;;;0.70;0.70;;;7.90;99.90;;;;;;5072824;28;20186;-74
2022/03/15 12:17:05;;;;;;;0.63;0.63;;;7.90;97.70;;;;;;5072927;28;20190;-73
2022/03/15 12:19:48;;;;;;;0.63;0.63;;;7.80;59.50;;;;;;5072565;28;20241;-71
2022/03/15 12:22:31;;;;;;;0.50;0.50;;;7.70;99.90;;;;;;5059544;28;20644;-72
2022/03/15 12:25:05;;;;;;;0.60;0.60;;;7.80;99.90;;;;;;5086461;28;20174;-72
2022/03/15 12:27:30;;;;;;;0.67;0.67;;;7.80;99.90;;;;;;5087790;28;20170;-72
2022/03/15 12:29:58;;;;;;;0.67;0.67;;;7.80;26.60;;;;;;5085067;28;20228;-72
2022/03/15 12:32:24;;;;;;;0.70;0.70;;;7.90;98.60;;;;;;5076849;28;20544;-72
2022/03/15 12:34:55;;;;;;;0.50;0.50;;;7.90;97.80;;;;;;5072114;28;20256;-73
2022/03/15 12:37:33;;;;;;;0.60;0.60;;;7.90;79.50;;;;;;5072377;28;20198;-74
2022/03/15 12:40:00;;;;;;;0.70;0.70;;;7.90;36.30;;;;;;5072084;28;20237;-73
2022/03/15 12:42:26;;;;;;;0.50;0.50;;;7.90;39.90;;;;;;5072508;28;20181;-72
2022/03/15 12:44:59;;;;;;;0.63;0.63;;;7.80;2.80;;;;;;5072652;28;20178;-73
2022/03/15 12:47:30;;;;;;;0.60;0.60;;;8.20;20.70;;;;;;5072072;28;20181;-73
2022/03/15 12:50:14;;;;;;;0.60;0.60;;;8.00;1.00;;;;;;5071668;28;20194;-73
2022/03/15 12:52:42;;;;;;;0.60;0.60;;;7.90;1.00;;;;;;5072275;28;20274;-73
2022/03/15 12:55:26;;;;;;;0.50;0.50;;;8.00;1.00;;;;;;5072093;28;20578;-73
2022/03/15 12:58:05;;;;;;;0.60;0.60;;;8.10;1.00;;;;;;5072149;28;20660;-71
2022/03/15 13:00:42;;;;;;;0.67;0.67;;;8.10;1.00;;;;;;5071322;28;20691;-72
2022/03/15 13:03:13;;;;;;;0.60;0.60;;;8.20;1.00;;;;;;5072075;28;20220;-72
2022/03/15 13:05:41;;;;;;;0.60;0.60;;;8.20;1.00;;;;;;5072105;28;20209;-73
2022/03/15 13:08:07;;;;;;;0.60;0.60;;;8.30;1.00;;;;;;5072167;28;20175;-72
2022/03/15 13:10:38;;;;;;;0.53;0.53;;;8.20;1.00;;;;;;5071168;28;20198;-73